Terminal Aerodrome Forecast
Issued by NWS

Home | Current Version | Previous Version | Graphics & Text | Print | Product List | Glossary On
Versions: 1 2 3 4 5 6 7 8 9 10 11 12 13 14 15 16 17 18 19 20 21 22 23 24 25 26 27 28 29 30 31 32 33 34 35 36 37 38 39 40 41 42 43
000
FTUS42 KMHX 231700
TAFPGV
TAF
KPGV 231738Z 2318/2418 03003KT 1SM BR OVC003
     FM232300 11005KT 2SM -RA BR OVC007
     FM240900 17006KT 3/4SM -DZ BR OVC004
     FM241500 18012G18KT 3SM -RA BR OVC008
      AMD LTD TO CLD VIS AND WIND=

USA.gov is the U.S. government's official web portal to all federal, state and local government web resources and services.